sensor_id;sensor_type;location;lat;lon;timestamp;P1;durP1;ratioP1;P2;durP2;ratioP2
44130;SDS011;29792;48.726;9.248;2024-02-26T00:01:37;2.00;;;1.60;;
44130;SDS011;29792;48.726;9.248;2024-02-26T00:04:02;1.65;;;1.00;;
44130;SDS011;29792;48.726;9.248;2024-02-26T00:06:28;0.88;;;0.85;;
44130;SDS011;29792;48.726;9.248;2024-02-26T00:08:54;2.17;;;1.50;;
44130;SDS011;29792;48.726;9.248;2024-02-26T00:11:19;1.73;;;1.20;;
44130;SDS011;29792;48.726;9.248;2024-02-26T00:13:45;1.05;;;0.80;;
44130;SDS011;29792;48.726;9.248;2024-02-26T00:16:10;1.88;;;1.02;;
44130;SDS011;29792;48.726;9.248;2024-02-26T00:18:35;0.98;;;0.90;;
44130;SDS011;29792;48.726;9.248;2024-02-26T00:21:01;1.00;;;0.77;;
44130;SDS011;29792;48.726;9.248;2024-02-26T00:23:27;1.48;;;1.08;;
44130;SDS011;29792;48.726;9.248;2024-02-26T00:25:52;1.08;;;0.80;;
44130;SDS011;29792;48.726;9.248;2024-02-26T00:28:18;2.67;;;1.13;;
44130;SDS011;29792;48.726;9.248;2024-02-26T00:30:44;2.75;;;1.42;;
44130;SDS011;29792;48.726;9.248;2024-02-26T00:33:10;2.05;;;0.88;;
44130;SDS011;29792;48.726;9.248;2024-02-26T00:35:35;1.60;;;1.08;;
44130;SDS011;29792;48.726;9.248;2024-02-26T00:38:01;1.00;;;0.80;;
44130;SDS011;29792;48.726;9.248;2024-02-26T00:40:28;1.50;;;1.40;;
44130;SDS011;29792;48.726;9.248;2024-02-26T00:42:53;1.85;;;1.30;;
44130;SDS011;29792;48.726;9.248;2024-02-26T00:45:19;3.80;;;1.38;;
44130;SDS011;29792;48.726;9.248;2024-02-26T00:47:44;1.55;;;1.20;;
44130;SDS011;29792;48.726;9.248;2024-02-26T00:50:11;3.63;;;0.93;;
44130;SDS011;29792;48.726;9.248;2024-02-26T00:52:36;3.72;;;1.38;;
44130;SDS011;29792;48.726;9.248;2024-02-26T00:55:02;1.58;;;1.33;;
44130;SDS011;29792;48.726;9.248;2024-02-26T00:57:27;2.45;;;1.58;;
44130;SDS011;29792;48.726;9.248;2024-02-26T00:59:53;1.85;;;1.20;;
44130;SDS011;29792;48.726;9.248;2024-02-26T01:02:20;3.63;;;2.17;;
44130;SDS011;29792;48.726;9.248;2024-02-26T01:04:46;1.48;;;1.20;;
44130;SDS011;29792;48.726;9.248;2024-02-26T01:07:12;1.63;;;1.10;;
44130;SDS011;29792;48.726;9.248;2024-02-26T01:09:37;2.00;;;1.30;;
44130;SDS011;29792;48.726;9.248;2024-02-26T01:12:02;2.00;;;1.23;;
44130;SDS011;29792;48.726;9.248;2024-02-26T01:14:28;1.65;;;1.40;;
44130;SDS011;29792;48.726;9.248;2024-02-26T01:16:53;1.38;;;0.93;;
44130;SDS011;29792;48.726;9.248;2024-02-26T01:19:18;2.20;;;1.25;;
44130;SDS011;29792;48.726;9.248;2024-02-26T01:21:44;1.63;;;1.45;;
44130;SDS011;29792;48.726;9.248;2024-02-26T01:24:09;3.47;;;1.40;;
44130;SDS011;29792;48.726;9.248;2024-02-26T01:26:34;1.27;;;1.00;;
44130;SDS011;29792;48.726;9.248;2024-02-26T01:28:59;2.13;;;1.60;;
44130;SDS011;29792;48.726;9.248;2024-02-26T01:31:25;1.63;;;0.95;;
44130;SDS011;29792;48.726;9.248;2024-02-26T01:33:50;2.67;;;1.40;;
44130;SDS011;29792;48.726;9.248;2024-02-26T01:36:16;2.05;;;1.85;;
44130;SDS011;29792;48.726;9.248;2024-02-26T01:38:41;1.88;;;1.67;;
44130;SDS011;29792;48.726;9.248;2024-02-26T01:41:06;1.98;;;1.08;;
44130;SDS011;29792;48.726;9.248;2024-02-26T01:43:31;2.80;;;1.08;;
44130;SDS011;29792;48.726;9.248;2024-02-26T01:45:57;1.70;;;1.30;;
44130;SDS011;29792;48.726;9.248;2024-02-26T01:48:23;1.30;;;1.17;;
44130;SDS011;29792;48.726;9.248;2024-02-26T01:50:48;3.28;;;1.63;;
44130;SDS011;29792;48.726;9.248;2024-02-26T01:53:15;2.05;;;1.85;;
44130;SDS011;29792;48.726;9.248;2024-02-26T01:55:42;2.10;;;1.20;;
44130;SDS011;29792;48.726;9.248;2024-02-26T01:58:07;2.15;;;1.50;;
44130;SDS011;29792;48.726;9.248;2024-02-26T02:00:32;2.38;;;1.50;;
44130;SDS011;29792;48.726;9.248;2024-02-26T02:02:58;2.47;;;1.27;;
44130;SDS011;29792;48.726;9.248;2024-02-26T02:05:23;2.78;;;1.70;;
44130;SDS011;29792;48.726;9.248;2024-02-26T02:07:49;2.85;;;1.70;;
44130;SDS011;29792;48.726;9.248;2024-02-26T02:10:16;2.45;;;1.67;;
44130;SDS011;29792;48.726;9.248;2024-02-26T02:12:43;2.28;;;1.35;;
44130;SDS011;29792;48.726;9.248;2024-02-26T02:15:08;1.58;;;1.33;;
44130;SDS011;29792;48.726;9.248;2024-02-26T02:17:34;2.47;;;1.50;;
44130;SDS011;29792;48.726;9.248;2024-02-26T02:19:59;2.08;;;1.45;;
44130;SDS011;29792;48.726;9.248;2024-02-26T02:22:24;2.65;;;1.77;;
44130;SDS011;29792;48.726;9.248;2024-02-26T02:24:51;3.58;;;1.90;;
44130;SDS011;29792;48.726;9.248;2024-02-26T02:27:17;1.95;;;1.45;;
44130;SDS011;29792;48.726;9.248;2024-02-26T02:29:42;2.20;;;1.48;;
44130;SDS011;29792;48.726;9.248;2024-02-26T02:32:08;1.08;;;0.98;;
44130;SDS011;29792;48.726;9.248;2024-02-26T02:34:33;1.25;;;1.00;;
44130;SDS011;29792;48.726;9.248;2024-02-26T02:36:59;1.17;;;0.95;;
44130;SDS011;29792;48.726;9.248;2024-02-26T02:39:24;1.10;;;0.50;;
44130;SDS011;29792;48.726;9.248;2024-02-26T02:41:50;1.08;;;0.68;;
44130;SDS011;29792;48.726;9.248;2024-02-26T02:44:15;0.70;;;0.45;;
44130;SDS011;29792;48.726;9.248;2024-02-26T02:46:40;0.70;;;0.47;;
44130;SDS011;29792;48.726;9.248;2024-02-26T02:49:09;0.60;;;0.60;;
44130;SDS011;29792;48.726;9.248;2024-02-26T02:51:35;0.52;;;0.50;;
44130;SDS011;29792;48.726;9.248;2024-02-26T02:54:00;0.88;;;0.68;;
44130;SDS011;29792;48.726;9.248;2024-02-26T02:56:26;0.73;;;0.50;;
44130;SDS011;29792;48.726;9.248;2024-02-26T02:58:51;2.20;;;1.40;;
44130;SDS011;29792;48.726;9.248;2024-02-26T03:01:16;1.42;;;0.95;;
44130;SDS011;29792;48.726;9.248;2024-02-26T03:03:42;1.92;;;1.13;;
44130;SDS011;29792;48.726;9.248;2024-02-26T03:06:07;1.52;;;1.15;;
44130;SDS011;29792;48.726;9.248;2024-02-26T03:08:32;3.40;;;1.17;;
44130;SDS011;29792;48.726;9.248;2024-02-26T03:11:00;1.98;;;0.73;;
44130;SDS011;29792;48.726;9.248;2024-02-26T03:13:26;1.65;;;0.60;;
44130;SDS011;29792;48.726;9.248;2024-02-26T03:15:51;2.50;;;0.60;;
44130;SDS011;29792;48.726;9.248;2024-02-26T03:18:16;0.32;;;0.30;;
44130;SDS011;29792;48.726;9.248;2024-02-26T03:20:41;0.32;;;0.20;;
44130;SDS011;29792;48.726;9.248;2024-02-26T03:23:07;0.63;;;0.50;;
44130;SDS011;29792;48.726;9.248;2024-02-26T03:25:34;0.70;;;0.63;;
44130;SDS011;29792;48.726;9.248;2024-02-26T03:28:00;1.40;;;0.63;;
44130;SDS011;29792;48.726;9.248;2024-02-26T03:30:25;0.82;;;0.50;;
44130;SDS011;29792;48.726;9.248;2024-02-26T03:32:50;1.05;;;0.50;;
44130;SDS011;29792;48.726;9.248;2024-02-26T03:35:16;0.98;;;0.50;;
44130;SDS011;29792;48.726;9.248;2024-02-26T03:37:41;3.70;;;1.00;;
44130;SDS011;29792;48.726;9.248;2024-02-26T03:40:06;0.93;;;0.60;;
44130;SDS011;29792;48.726;9.248;2024-02-26T03:42:32;1.65;;;0.90;;
44130;SDS011;29792;48.726;9.248;2024-02-26T03:44:57;1.55;;;0.93;;
44130;SDS011;29792;48.726;9.248;2024-02-26T03:47:22;1.13;;;1.02;;
44130;SDS011;29792;48.726;9.248;2024-02-26T03:49:48;1.10;;;1.00;;
44130;SDS011;29792;48.726;9.248;2024-02-26T03:52:13;2.17;;;1.35;;
44130;SDS011;29792;48.726;9.248;2024-02-26T03:54:39;0.88;;;0.77;;
44130;SDS011;29792;48.726;9.248;2024-02-26T03:57:05;2.00;;;1.20;;
44130;SDS011;29792;48.726;9.248;2024-02-26T03:59:30;2.03;;;0.90;;
44130;SDS011;29792;48.726;9.248;2024-02-26T04:01:55;2.10;;;1.33;;
44130;SDS011;29792;48.726;9.248;2024-02-26T04:04:20;2.13;;;1.00;;
44130;SDS011;29792;48.726;9.248;2024-02-26T04:06:46;2.30;;;1.30;;
44130;SDS011;29792;48.726;9.248;2024-02-26T04:09:13;1.27;;;1.00;;
44130;SDS011;29792;48.726;9.248;2024-02-26T04:11:39;1.67;;;1.50;;
44130;SDS011;29792;48.726;9.248;2024-02-26T04:14:04;2.03;;;1.73;;
44130;SDS011;29792;48.726;9.248;2024-02-26T04:16:33;1.40;;;1.02;;
44130;SDS011;29792;48.726;9.248;2024-02-26T04:18:58;1.30;;;0.90;;
44130;SDS011;29792;48.726;9.248;2024-02-26T04:21:23;1.88;;;0.90;;
44130;SDS011;29792;48.726;9.248;2024-02-26T04:23:49;1.52;;;1.42;;
44130;SDS011;29792;48.726;9.248;2024-02-26T04:26:14;1.20;;;1.00;;
44130;SDS011;29792;48.726;9.248;2024-02-26T04:28:39;1.88;;;0.93;;
44130;SDS011;29792;48.726;9.248;2024-02-26T04:31:05;2.33;;;1.38;;
44130;SDS011;29792;48.726;9.248;2024-02-26T04:33:30;2.95;;;1.25;;
44130;SDS011;29792;48.726;9.248;2024-02-26T04:35:58;1.70;;;1.27;;
44130;SDS011;29792;48.726;9.248;2024-02-26T04:38:23;2.05;;;1.35;;
44130;SDS011;29792;48.726;9.248;2024-02-26T04:40:49;2.75;;;1.38;;
44130;SDS011;29792;48.726;9.248;2024-02-26T04:43:14;1.88;;;1.73;;
44130;SDS011;29792;48.726;9.248;2024-02-26T04:45:39;2.90;;;1.98;;
44130;SDS011;29792;48.726;9.248;2024-02-26T04:48:04;1.55;;;1.40;;
44130;SDS011;29792;48.726;9.248;2024-02-26T04:50:30;3.63;;;1.95;;
44130;SDS011;29792;48.726;9.248;2024-02-26T04:52:55;2.83;;;2.28;;
44130;SDS011;29792;48.726;9.248;2024-02-26T04:55:21;2.45;;;1.90;;
44130;SDS011;29792;48.726;9.248;2024-02-26T04:57:46;2.45;;;1.90;;
44130;SDS011;29792;48.726;9.248;2024-02-26T05:00:11;3.30;;;2.10;;
44130;SDS011;29792;48.726;9.248;2024-02-26T05:02:37;2.35;;;1.88;;
44130;SDS011;29792;48.726;9.248;2024-02-26T05:05:04;2.92;;;1.70;;
44130;SDS011;29792;48.726;9.248;2024-02-26T05:07:30;2.60;;;2.10;;
44130;SDS011;29792;48.726;9.248;2024-02-26T05:09:56;3.55;;;1.60;;
44130;SDS011;29792;48.726;9.248;2024-02-26T05:12:21;3.10;;;2.40;;
44130;SDS011;29792;48.726;9.248;2024-02-26T05:14:47;3.13;;;2.47;;
44130;SDS011;29792;48.726;9.248;2024-02-26T05:17:12;5.13;;;2.33;;
44130;SDS011;29792;48.726;9.248;2024-02-26T05:19:37;2.80;;;1.95;;
44130;SDS011;29792;48.726;9.248;2024-02-26T05:22:02;2.78;;;2.22;;
44130;SDS011;29792;48.726;9.248;2024-02-26T05:24:27;2.20;;;2.00;;
44130;SDS011;29792;48.726;9.248;2024-02-26T05:26:53;1.85;;;1.63;;
44130;SDS011;29792;48.726;9.248;2024-02-26T05:29:19;3.15;;;2.00;;
44130;SDS011;29792;48.726;9.248;2024-02-26T05:31:45;2.25;;;1.88;;
44130;SDS011;29792;48.726;9.248;2024-02-26T05:34:10;2.70;;;1.88;;
44130;SDS011;29792;48.726;9.248;2024-02-26T05:36:35;1.85;;;1.70;;
44130;SDS011;29792;48.726;9.248;2024-02-26T05:39:01;3.67;;;2.05;;
44130;SDS011;29792;48.726;9.248;2024-02-26T05:41:26;2.22;;;2.03;;
44130;SDS011;29792;48.726;9.248;2024-02-26T05:43:52;3.22;;;1.83;;
44130;SDS011;29792;48.726;9.248;2024-02-26T05:46:18;5.40;;;2.10;;
44130;SDS011;29792;48.726;9.248;2024-02-26T05:48:50;2.80;;;2.42;;
44130;SDS011;29792;48.726;9.248;2024-02-26T05:51:17;3.38;;;1.98;;
44130;SDS011;29792;48.726;9.248;2024-02-26T05:53:42;5.28;;;2.88;;
44130;SDS011;29792;48.726;9.248;2024-02-26T05:56:08;4.75;;;2.10;;
44130;SDS011;29792;48.726;9.248;2024-02-26T05:58:33;1.98;;;1.77;;
44130;SDS011;29792;48.726;9.248;2024-02-26T06:00:58;3.25;;;2.20;;
44130;SDS011;29792;48.726;9.248;2024-02-26T06:03:25;2.58;;;1.85;;
44130;SDS011;29792;48.726;9.248;2024-02-26T06:05:50;2.50;;;1.65;;
44130;SDS011;29792;48.726;9.248;2024-02-26T06:08:15;2.55;;;2.15;;
44130;SDS011;29792;48.726;9.248;2024-02-26T06:10:41;4.00;;;2.10;;
44130;SDS011;29792;48.726;9.248;2024-02-26T06:13:06;2.95;;;2.35;;
44130;SDS011;29792;48.726;9.248;2024-02-26T06:15:31;2.03;;;1.65;;
44130;SDS011;29792;48.726;9.248;2024-02-26T06:17:56;5.47;;;3.10;;
44130;SDS011;29792;48.726;9.248;2024-02-26T06:20:22;3.22;;;1.80;;
44130;SDS011;29792;48.726;9.248;2024-02-26T06:22:47;4.22;;;2.60;;
44130;SDS011;29792;48.726;9.248;2024-02-26T06:25:12;1.65;;;1.48;;
44130;SDS011;29792;48.726;9.248;2024-02-26T06:27:37;3.17;;;1.77;;
44130;SDS011;29792;48.726;9.248;2024-02-26T06:30:03;1.92;;;1.70;;
44130;SDS011;29792;48.726;9.248;2024-02-26T06:32:28;1.60;;;1.42;;
44130;SDS011;29792;48.726;9.248;2024-02-26T06:34:54;4.03;;;2.05;;
44130;SDS011;29792;48.726;9.248;2024-02-26T06:37:20;1.70;;;1.60;;
44130;SDS011;29792;48.726;9.248;2024-02-26T06:39:45;2.67;;;2.00;;
44130;SDS011;29792;48.726;9.248;2024-02-26T06:42:10;3.72;;;2.13;;
44130;SDS011;29792;48.726;9.248;2024-02-26T06:44:36;1.92;;;1.65;;
44130;SDS011;29792;48.726;9.248;2024-02-26T06:47:01;2.55;;;2.00;;
44130;SDS011;29792;48.726;9.248;2024-02-26T06:49:27;3.50;;;2.40;;
44130;SDS011;29792;48.726;9.248;2024-02-26T06:51:52;2.78;;;1.85;;
44130;SDS011;29792;48.726;9.248;2024-02-26T06:54:18;2.47;;;1.80;;
44130;SDS011;29792;48.726;9.248;2024-02-26T06:56:43;2.60;;;1.75;;
44130;SDS011;29792;48.726;9.248;2024-02-26T06:59:08;2.58;;;1.85;;
44130;SDS011;29792;48.726;9.248;2024-02-26T07:01:34;2.92;;;1.75;;
44130;SDS011;29792;48.726;9.248;2024-02-26T07:03:59;3.13;;;1.83;;
44130;SDS011;29792;48.726;9.248;2024-02-26T07:06:25;2.70;;;1.80;;
44130;SDS011;29792;48.726;9.248;2024-02-26T07:08:50;2.40;;;1.80;;
44130;SDS011;29792;48.726;9.248;2024-02-26T07:11:16;2.88;;;1.80;;
44130;SDS011;29792;48.726;9.248;2024-02-26T07:13:41;2.33;;;1.65;;
44130;SDS011;29792;48.726;9.248;2024-02-26T07:16:08;2.97;;;2.30;;
44130;SDS011;29792;48.726;9.248;2024-02-26T07:18:34;3.05;;;1.95;;
44130;SDS011;29792;48.726;9.248;2024-02-26T07:21:01;2.80;;;1.70;;
44130;SDS011;29792;48.726;9.248;2024-02-26T07:23:27;3.28;;;2.40;;
44130;SDS011;29792;48.726;9.248;2024-02-26T07:25:52;4.68;;;3.08;;
44130;SDS011;29792;48.726;9.248;2024-02-26T07:28:18;3.08;;;2.03;;
44130;SDS011;29792;48.726;9.248;2024-02-26T07:30:43;3.47;;;2.47;;
44130;SDS011;29792;48.726;9.248;2024-02-26T07:33:09;3.20;;;2.42;;
44130;SDS011;29792;48.726;9.248;2024-02-26T07:35:34;2.40;;;2.05;;
44130;SDS011;29792;48.726;9.248;2024-02-26T07:38:01;3.30;;;1.98;;
44130;SDS011;29792;48.726;9.248;2024-02-26T07:40:26;2.78;;;1.92;;
44130;SDS011;29792;48.726;9.248;2024-02-26T07:42:51;2.50;;;2.08;;
44130;SDS011;29792;48.726;9.248;2024-02-26T07:45:17;3.20;;;1.92;;
44130;SDS011;29792;48.726;9.248;2024-02-26T07:47:44;2.67;;;1.73;;
44130;SDS011;29792;48.726;9.248;2024-02-26T07:50:10;2.50;;;2.05;;
44130;SDS011;29792;48.726;9.248;2024-02-26T07:52:36;6.35;;;2.60;;
44130;SDS011;29792;48.726;9.248;2024-02-26T07:55:02;2.78;;;2.08;;
44130;SDS011;29792;48.726;9.248;2024-02-26T07:57:27;2.38;;;1.95;;
44130;SDS011;29792;48.726;9.248;2024-02-26T07:59:53;4.72;;;2.28;;
44130;SDS011;29792;48.726;9.248;2024-02-26T08:02:18;2.33;;;1.90;;
44130;SDS011;29792;48.726;9.248;2024-02-26T08:04:43;3.17;;;1.88;;
44130;SDS011;29792;48.726;9.248;2024-02-26T08:07:08;6.07;;;3.10;;
44130;SDS011;29792;48.726;9.248;2024-02-26T08:09:34;4.32;;;2.03;;
44130;SDS011;29792;48.726;9.248;2024-02-26T08:11:59;5.43;;;2.65;;
44130;SDS011;29792;48.726;9.248;2024-02-26T08:14:25;4.78;;;2.28;;
44130;SDS011;29792;48.726;9.248;2024-02-26T08:16:50;4.53;;;2.20;;
44130;SDS011;29792;48.726;9.248;2024-02-26T08:19:16;3.00;;;2.20;;
44130;SDS011;29792;48.726;9.248;2024-02-26T08:21:42;3.78;;;2.92;;
44130;SDS011;29792;48.726;9.248;2024-02-26T08:24:07;4.47;;;3.00;;
44130;SDS011;29792;48.726;9.248;2024-02-26T08:26:33;4.35;;;2.83;;
44130;SDS011;29792;48.726;9.248;2024-02-26T08:28:58;6.65;;;3.10;;
44130;SDS011;29792;48.726;9.248;2024-02-26T08:31:23;3.35;;;2.55;;
44130;SDS011;29792;48.726;9.248;2024-02-26T08:33:49;4.47;;;2.25;;
44130;SDS011;29792;48.726;9.248;2024-02-26T08:36:14;3.08;;;2.40;;
44130;SDS011;29792;48.726;9.248;2024-02-26T08:38:39;3.08;;;2.35;;
44130;SDS011;29792;48.726;9.248;2024-02-26T08:41:05;3.25;;;2.50;;
44130;SDS011;29792;48.726;9.248;2024-02-26T08:43:30;2.75;;;2.42;;
44130;SDS011;29792;48.726;9.248;2024-02-26T08:45:56;2.53;;;2.30;;
44130;SDS011;29792;48.726;9.248;2024-02-26T08:48:21;3.25;;;2.42;;
44130;SDS011;29792;48.726;9.248;2024-02-26T08:50:47;3.20;;;2.70;;
44130;SDS011;29792;48.726;9.248;2024-02-26T08:53:12;3.03;;;2.58;;
44130;SDS011;29792;48.726;9.248;2024-02-26T08:55:37;3.40;;;3.17;;
44130;SDS011;29792;48.726;9.248;2024-02-26T08:58:02;4.15;;;2.97;;
44130;SDS011;29792;48.726;9.248;2024-02-26T09:00:28;3.15;;;2.80;;
44130;SDS011;29792;48.726;9.248;2024-02-26T09:02:53;3.83;;;3.03;;
44130;SDS011;29792;48.726;9.248;2024-02-26T09:05:18;4.30;;;2.80;;
44130;SDS011;29792;48.726;9.248;2024-02-26T09:07:44;4.25;;;2.42;;
44130;SDS011;29792;48.726;9.248;2024-02-26T09:10:09;5.15;;;4.57;;
44130;SDS011;29792;48.726;9.248;2024-02-26T09:12:35;4.80;;;3.53;;
44130;SDS011;29792;48.726;9.248;2024-02-26T09:15:05;5.78;;;2.70;;
44130;SDS011;29792;48.726;9.248;2024-02-26T09:17:31;1.90;;;1.40;;
44130;SDS011;29792;48.726;9.248;2024-02-26T09:19:56;3.13;;;1.80;;
44130;SDS011;29792;48.726;9.248;2024-02-26T09:22:22;3.22;;;1.50;;
44130;SDS011;29792;48.726;9.248;2024-02-26T09:24:47;3.10;;;1.90;;
44130;SDS011;29792;48.726;9.248;2024-02-26T09:27:14;2.42;;;2.15;;
44130;SDS011;29792;48.726;9.248;2024-02-26T09:29:40;2.50;;;2.30;;
44130;SDS011;29792;48.726;9.248;2024-02-26T09:32:05;2.75;;;1.95;;
44130;SDS011;29792;48.726;9.248;2024-02-26T09:34:30;3.30;;;2.13;;
44130;SDS011;29792;48.726;9.248;2024-02-26T09:36:55;3.17;;;2.13;;
44130;SDS011;29792;48.726;9.248;2024-02-26T09:39:21;4.38;;;2.80;;
44130;SDS011;29792;48.726;9.248;2024-02-26T09:41:46;2.80;;;2.58;;
44130;SDS011;29792;48.726;9.248;2024-02-26T09:44:12;4.03;;;2.85;;
44130;SDS011;29792;48.726;9.248;2024-02-26T09:46:43;3.42;;;2.55;;
44130;SDS011;29792;48.726;9.248;2024-02-26T09:49:09;3.47;;;2.92;;
44130;SDS011;29792;48.726;9.248;2024-02-26T09:51:37;5.40;;;3.00;;
44130;SDS011;29792;48.726;9.248;2024-02-26T09:54:03;3.90;;;2.95;;
44130;SDS011;29792;48.726;9.248;2024-02-26T09:56:28;3.85;;;3.13;;
44130;SDS011;29792;48.726;9.248;2024-02-26T09:58:55;5.38;;;3.40;;
44130;SDS011;29792;48.726;9.248;2024-02-26T10:01:21;5.80;;;3.42;;
44130;SDS011;29792;48.726;9.248;2024-02-26T10:03:52;3.08;;;2.35;;
44130;SDS011;29792;48.726;9.248;2024-02-26T10:06:20;3.10;;;2.53;;
44130;SDS011;29792;48.726;9.248;2024-02-26T10:08:45;1.85;;;1.63;;
44130;SDS011;29792;48.726;9.248;2024-02-26T10:11:12;2.58;;;1.73;;
44130;SDS011;29792;48.726;9.248;2024-02-26T10:13:38;3.88;;;1.90;;
44130;SDS011;29792;48.726;9.248;2024-02-26T10:16:03;4.03;;;2.03;;
44130;SDS011;29792;48.726;9.248;2024-02-26T10:21:14;3.47;;;2.03;;
44130;SDS011;29792;48.726;9.248;2024-02-26T10:23:42;3.00;;;2.10;;
44130;SDS011;29792;48.726;9.248;2024-02-26T10:26:08;2.30;;;1.60;;
44130;SDS011;29792;48.726;9.248;2024-02-26T10:28:36;3.78;;;2.00;;
44130;SDS011;29792;48.726;9.248;2024-02-26T10:31:02;2.30;;;1.85;;
44130;SDS011;29792;48.726;9.248;2024-02-26T10:33:27;2.58;;;1.75;;
44130;SDS011;29792;48.726;9.248;2024-02-26T10:35:53;2.88;;;1.90;;
44130;SDS011;29792;48.726;9.248;2024-02-26T10:38:19;3.15;;;1.92;;
44130;SDS011;29792;48.726;9.248;2024-02-26T10:40:45;3.15;;;1.58;;
44130;SDS011;29792;48.726;9.248;2024-02-26T10:43:11;1.50;;;1.20;;
44130;SDS011;29792;48.726;9.248;2024-02-26T10:45:38;1.90;;;1.30;;
44130;SDS011;29792;48.726;9.248;2024-02-26T10:48:09;3.60;;;1.58;;
44130;SDS011;29792;48.726;9.248;2024-02-26T10:50:36;2.47;;;1.50;;
44130;SDS011;29792;48.726;9.248;2024-02-26T10:53:01;1.98;;;1.25;;
44130;SDS011;29792;48.726;9.248;2024-02-26T10:55:28;1.88;;;1.25;;
44130;SDS011;29792;48.726;9.248;2024-02-26T10:57:54;2.53;;;1.60;;
44130;SDS011;29792;48.726;9.248;2024-02-26T11:00:20;1.83;;;1.63;;
44130;SDS011;29792;48.726;9.248;2024-02-26T11:02:46;2.35;;;1.20;;
44130;SDS011;29792;48.726;9.248;2024-02-26T11:05:13;2.13;;;1.25;;
44130;SDS011;29792;48.726;9.248;2024-02-26T11:07:39;1.55;;;1.23;;
44130;SDS011;29792;48.726;9.248;2024-02-26T11:10:06;2.42;;;1.40;;
44130;SDS011;29792;48.726;9.248;2024-02-26T11:12:32;1.40;;;1.15;;
44130;SDS011;29792;48.726;9.248;2024-02-26T11:15:02;1.58;;;0.98;;
44130;SDS011;29792;48.726;9.248;2024-02-26T11:17:29;1.80;;;1.17;;
44130;SDS011;29792;48.726;9.248;2024-02-26T11:19:57;4.68;;;1.23;;
44130;SDS011;29792;48.726;9.248;2024-02-26T11:22:24;2.20;;;1.35;;
44130;SDS011;29792;48.726;9.248;2024-02-26T11:24:54;2.10;;;1.20;;
44130;SDS011;29792;48.726;9.248;2024-02-26T11:27:23;1.38;;;0.90;;
44130;SDS011;29792;48.726;9.248;2024-02-26T11:29:55;6.20;;;1.20;;
44130;SDS011;29792;48.726;9.248;2024-02-26T11:32:23;2.28;;;1.10;;
44130;SDS011;29792;48.726;9.248;2024-02-26T11:34:48;3.30;;;1.02;;
44130;SDS011;29792;48.726;9.248;2024-02-26T11:37:15;1.63;;;0.80;;
44130;SDS011;29792;48.726;9.248;2024-02-26T11:39:41;2.42;;;0.90;;
44130;SDS011;29792;48.726;9.248;2024-02-26T11:42:08;1.45;;;0.90;;
44130;SDS011;29792;48.726;9.248;2024-02-26T11:44:34;2.63;;;0.95;;
44130;SDS011;29792;48.726;9.248;2024-02-26T11:47:09;0.82;;;0.60;;
44130;SDS011;29792;48.726;9.248;2024-02-26T11:49:38;2.10;;;0.93;;
44130;SDS011;29792;48.726;9.248;2024-02-26T11:52:08;1.65;;;0.90;;
44130;SDS011;29792;48.726;9.248;2024-02-26T11:54:44;1.05;;;0.95;;
44130;SDS011;29792;48.726;9.248;2024-02-26T11:57:20;1.23;;;0.60;;
44130;SDS011;29792;48.726;9.248;2024-02-26T11:59:45;0.90;;;0.70;;
44130;SDS011;29792;48.726;9.248;2024-02-26T12:02:11;1.25;;;0.80;;
44130;SDS011;29792;48.726;9.248;2024-02-26T12:04:37;1.85;;;0.70;;
44130;SDS011;29792;48.726;9.248;2024-02-26T12:07:03;1.02;;;0.70;;
44130;SDS011;29792;48.726;9.248;2024-02-26T12:09:48;2.17;;;1.00;;
44130;SDS011;29792;48.726;9.248;2024-02-26T12:12:17;1.67;;;1.10;;
44130;SDS011;29792;48.726;9.248;2024-02-26T12:14:50;1.17;;;0.80;;
44130;SDS011;29792;48.726;9.248;2024-02-26T12:17:20;2.05;;;0.65;;
44130;SDS011;29792;48.726;9.248;2024-02-26T12:19:47;0.98;;;0.85;;
44130;SDS011;29792;48.726;9.248;2024-02-26T12:22:12;1.50;;;0.80;;
44130;SDS011;29792;48.726;9.248;2024-02-26T12:24:39;2.03;;;1.15;;
44130;SDS011;29792;48.726;9.248;2024-02-26T12:27:04;0.40;;;0.40;;
44130;SDS011;29792;48.726;9.248;2024-02-26T12:29:29;1.10;;;0.60;;
44130;SDS011;29792;48.726;9.248;2024-02-26T12:31:54;1.60;;;0.80;;
44130;SDS011;29792;48.726;9.248;2024-02-26T12:34:20;4.03;;;1.00;;
44130;SDS011;29792;48.726;9.248;2024-02-26T12:36:45;0.68;;;0.63;;
44130;SDS011;29792;48.726;9.248;2024-02-26T12:39:11;1.00;;;0.77;;
44130;SDS011;29792;48.726;9.248;2024-02-26T12:41:37;1.38;;;0.93;;
44130;SDS011;29792;48.726;9.248;2024-02-26T12:44:03;0.80;;;0.68;;
44130;SDS011;29792;48.726;9.248;2024-02-26T12:46:28;2.15;;;0.70;;
44130;SDS011;29792;48.726;9.248;2024-02-26T12:48:55;0.98;;;0.88;;
44130;SDS011;29792;48.726;9.248;2024-02-26T12:51:25;1.27;;;1.05;;
44130;SDS011;29792;48.726;9.248;2024-02-26T12:53:51;0.90;;;0.63;;
44130;SDS011;29792;48.726;9.248;2024-02-26T12:56:17;3.10;;;2.00;;
44130;SDS011;29792;48.726;9.248;2024-02-26T12:58:43;2.58;;;1.02;;
44130;SDS011;29792;48.726;9.248;2024-02-26T13:01:13;1.58;;;0.73;;
44130;SDS011;29792;48.726;9.248;2024-02-26T13:03:41;1.35;;;0.88;;
44130;SDS011;29792;48.726;9.248;2024-02-26T13:06:08;2.17;;;0.75;;
44130;SDS011;29792;48.726;9.248;2024-02-26T13:08:34;2.15;;;0.90;;
44130;SDS011;29792;48.726;9.248;2024-02-26T13:10:59;0.88;;;0.55;;
44130;SDS011;29792;48.726;9.248;2024-02-26T13:13:25;1.88;;;1.00;;
44130;SDS011;29792;48.726;9.248;2024-02-26T13:16:00;1.08;;;0.60;;
44130;SDS011;29792;48.726;9.248;2024-02-26T13:18:27;3.15;;;1.00;;
44130;SDS011;29792;48.726;9.248;2024-02-26T13:20:52;1.40;;;1.10;;
44130;SDS011;29792;48.726;9.248;2024-02-26T13:23:17;2.20;;;1.10;;
44130;SDS011;29792;48.726;9.248;2024-02-26T13:25:43;1.25;;;1.15;;
44130;SDS011;29792;48.726;9.248;2024-02-26T13:28:08;1.20;;;0.80;;
44130;SDS011;29792;48.726;9.248;2024-02-26T13:30:38;1.90;;;0.85;;
44130;SDS011;29792;48.726;9.248;2024-02-26T13:33:07;2.50;;;1.45;;
44130;SDS011;29792;48.726;9.248;2024-02-26T13:35:36;3.08;;;1.05;;
44130;SDS011;29792;48.726;9.248;2024-02-26T13:38:02;1.52;;;1.27;;
44130;SDS011;29792;48.726;9.248;2024-02-26T13:40:27;4.25;;;1.23;;
44130;SDS011;29792;48.726;9.248;2024-02-26T13:42:54;4.97;;;1.38;;
44130;SDS011;29792;48.726;9.248;2024-02-26T13:45:19;2.35;;;1.17;;
44130;SDS011;29792;48.726;9.248;2024-02-26T13:47:44;4.32;;;1.52;;
44130;SDS011;29792;48.726;9.248;2024-02-26T13:50:10;3.28;;;1.60;;
44130;SDS011;29792;48.726;9.248;2024-02-26T13:52:35;1.50;;;1.08;;
44130;SDS011;29792;48.726;9.248;2024-02-26T13:55:00;2.97;;;1.20;;
44130;SDS011;29792;48.726;9.248;2024-02-26T13:57:25;3.75;;;1.40;;
44130;SDS011;29792;48.726;9.248;2024-02-26T13:59:51;2.33;;;1.08;;
44130;SDS011;29792;48.726;9.248;2024-02-26T14:02:17;1.77;;;0.75;;
44130;SDS011;29792;48.726;9.248;2024-02-26T14:04:42;2.05;;;1.25;;
44130;SDS011;29792;48.726;9.248;2024-02-26T14:07:08;1.83;;;1.60;;
44130;SDS011;29792;48.726;9.248;2024-02-26T14:09:33;3.28;;;1.40;;
44130;SDS011;29792;48.726;9.248;2024-02-26T14:11:59;1.88;;;1.00;;
44130;SDS011;29792;48.726;9.248;2024-02-26T14:14:27;1.30;;;0.90;;
44130;SDS011;29792;48.726;9.248;2024-02-26T14:16:52;1.52;;;0.68;;
44130;SDS011;29792;48.726;9.248;2024-02-26T14:19:18;2.60;;;1.08;;
44130;SDS011;29792;48.726;9.248;2024-02-26T14:21:43;2.88;;;1.10;;
44130;SDS011;29792;48.726;9.248;2024-02-26T14:24:08;1.50;;;0.75;;
44130;SDS011;29792;48.726;9.248;2024-02-26T14:26:33;1.05;;;0.77;;
44130;SDS011;29792;48.726;9.248;2024-02-26T14:28:59;1.35;;;0.60;;
44130;SDS011;29792;48.726;9.248;2024-02-26T14:31:24;0.88;;;0.50;;
44130;SDS011;29792;48.726;9.248;2024-02-26T14:33:50;1.13;;;0.60;;
44130;SDS011;29792;48.726;9.248;2024-02-26T14:36:18;1.00;;;0.50;;
44130;SDS011;29792;48.726;9.248;2024-02-26T14:38:43;0.98;;;0.75;;
44130;SDS011;29792;48.726;9.248;2024-02-26T14:41:08;0.70;;;0.40;;
44130;SDS011;29792;48.726;9.248;2024-02-26T14:43:35;1.17;;;0.57;;